ADDS METAR Data INFO
IDs: Format: Raw Decoded Include TAF

Data at: 1016 UTC 14 Dec 2017

KCQB 140955Z AUTO 35009KT 10SM CLR 06/M02 A3001 RMK AO2 T00561022
KCQB 140935Z AUTO 35009KT 10SM CLR 06/M02 A3001 RMK AO2 T00561023
KCQB 140915Z AUTO 35008KT 10SM CLR 05/M02 A3001 RMK AO2 T00531025
KCQB 140855Z AUTO 35008KT 10SM CLR 05/M03 A3000 RMK AO2
KCQB 140835Z AUTO 35007KT 10SM CLR 05/M03 A2999 RMK AO2 T00481032
KCQB 140815Z AUTO 35007KT 10SM CLR 05/M03 A2998 RMK AO2 T00471034
KCQB 140755Z AUTO 35007KT 10SM CLR 05/M03 A2998 RMK AO2 T00471034
KCQB 140735Z AUTO 35007KT 10SM CLR 05/M03 A2998 RMK AO2 T00481035
KCQB 140715Z AUTO 35007KT 10SM CLR 05/M03 A2997 RMK AO2 T00501033
KCQB 140655Z AUTO 34007KT 10SM CLR 05/M04 A2997 RMK AO2
KCQB 140635Z AUTO 34007KT 10SM CLR 04/M04 A2997 RMK AO2
KCQB 140615Z AUTO 35007KT 10SM CLR 04/M04 A2997 RMK AO2 T00421039
KCQB 140555Z AUTO 34007KT 10SM CLR 05/M04 A2997 RMK AO2 10130 20044
KCQB 140535Z AUTO 34006KT 10SM CLR 05/M04 A2996 RMK AO2
KCQB 140515Z AUTO 34006KT 10SM CLR 05/M05 A2996 RMK AO2 T00491045
KCQB 140455Z AUTO 35006KT 10SM CLR 06/M05 A2996 RMK AO2 T00641046
KCQB 140435Z AUTO 36006KT 10SM CLR 06/M05 A2996 RMK AO2 T00621045
KCQB 140415Z AUTO 32005KT 10SM CLR 08/M05 A2995 RMK AO2 T00771048
KCQB 140355Z AUTO 31005KT 10SM CLR 08/M05 A2994 RMK AO2 T00831049
KCQB 140335Z AUTO 31005KT 10SM CLR 09/M05 A2994 RMK AO2 T00891050
KCQB 140315Z AUTO 32003KT 10SM CLR 09/M05 A2993 RMK AO2 T00871050
KCQB 140255Z AUTO 30005KT 10SM CLR 09/M05 A2993 RMK AO2 T00941051
KCQB 140235Z AUTO 31005KT 10SM CLR 10/M05 A2992 RMK AO2 T00961051
KCQB 140215Z AUTO 30006KT 10SM CLR 10/M05 A2991 RMK AO2 T01021050
KCQB 140155Z AUTO 28006KT 10SM CLR 10/M05 A2991 RMK AO2 T00991050
KCQB 140135Z AUTO 28005KT 10SM CLR 10/M05 A2991 RMK AO2 T01041049
KCQB 140115Z AUTO 29006KT 10SM CLR 11/M05 A2991 RMK AO2 T01071050
KCQB 140055Z AUTO 29005KT 10SM CLR 11/M05 A2990 RMK AO2 T01101049
KCQB 140035Z AUTO 29004KT 10SM CLR 11/M05 A2989 RMK AO2 T01111047
KCQB 140015Z AUTO 30005KT 10SM CLR 12/M05 A2989 RMK AO2 T01171048
KCQB 132355Z AUTO 30003KT 10SM CLR 13/M05 A2989 RMK AO2 T01291051 10189 20117 401890017
KCQB 132335Z AUTO 32005KT 10SM CLR 12/M05 A2989 RMK AO2 T01211049
KCQB 132315Z AUTO 33005KT 10SM CLR 13/M05 A2988 RMK AO2 T01291050
KCQB 132255Z AUTO 33006KT 10SM CLR 14/M04 A2988 RMK AO2 T01411045
KCQB 132235Z AUTO 33006KT 10SM CLR 16/M05 A2988 RMK AO2 T01571045
KCQB 132215Z AUTO 00000KT 5SM HZ CLR 16/M03 A2988 RMK AO2 T01561033
KCQB 132155Z AUTO 34003KT 10SM CLR 16/M03 A2988 RMK AO2 T01591034
KCQB 132135Z AUTO 34005KT 10SM CLR 17/M04 A2988 RMK AO2 T01681036
KCQB 132115Z AUTO 35006KT 10SM CLR 17/M04 A2988 RMK AO2 T01721039
KCQB 132055Z AUTO 34005KT 10SM CLR 17/M04 A2988 RMK AO2 T01741042
KCQB 132035Z AUTO 34007KT 10SM CLR 17/M04 A2989 RMK AO2 T01721040
KCQB 132015Z AUTO 33012G16KT 10SM CLR 19/M04 A2989 RMK AO2 T01861044
KCQB 131955Z AUTO 33010G15KT 10SM CLR 18/M04 A2990 RMK AO2 T01851045
KCQB 131935Z AUTO 35008KT 10SM CLR 18/M04 A2990 RMK AO2
KCQB 131915Z AUTO 33010KT 10SM CLR 19/M04 A2991 RMK AO2 T01861039
KCQB 131855Z AUTO 36011KT 10SM CLR 18/M04 A2992 RMK AO2 T01841044
KCQB 131835Z AUTO 33007KT 10SM CLR 17/M04 A2992 RMK AO2 T01711039
KCQB 131815Z AUTO 34010KT 10SM CLR 16/M04 A2993 RMK AO2 T01641043
KCQB 131755Z AUTO 34009KT 10SM CLR 16/M04 A2994 RMK AO2 T01631042 10165 20031
KCQB 131735Z AUTO 34012KT 10SM CLR 15/M05 A2995 RMK AO2 T01551046
KCQB 131715Z AUTO 35014KT 10SM CLR 15/M05 A2995 RMK AO2 T01531053
KCQB 131655Z AUTO 34011KT 10SM CLR 15/M06 A2995 RMK AO2 T01491058
KCQB 131635Z AUTO 32010KT 10SM CLR 14/M05 A2995 RMK AO2 T01381050
KCQB 131615Z AUTO 30009KT 10SM CLR 12/M05 A2995 RMK AO2 T01221050
KCQB 131555Z AUTO 28011KT 10SM CLR 11/M05 A2995 RMK AO2 T01111052
KCQB 131535Z AUTO 26009KT 10SM CLR 10/M05 A2994 RMK AO2 T00991051
KCQB 131515Z AUTO 25009KT 10SM CLR 09/M05 A2994 RMK AO2 T00881051
KCQB 131455Z AUTO 25010KT 10SM CLR 07/M05 A2993 RMK AO2 T00711049
KCQB 131435Z AUTO 27009KT 10SM CLR 06/M05 A2992 RMK AO2 T00601046
KCQB 131415Z AUTO 23007KT 10SM CLR 04/M04 A2990 RMK AO2 T00441043
KCQB 131355Z AUTO 21009KT 10SM CLR 04/M05 A2989 RMK AO2 T00401046
KCQB 131335Z AUTO 22008KT 10SM CLR 03/M04 A2990 RMK AO2 T00341045
KCQB 131315Z AUTO 22008KT 10SM CLR 04/M04 A2991 RMK AO2 T00351044
KCQB 131255Z AUTO 23007KT 10SM CLR 04/M04 A2990 RMK AO2 T00401044
KCQB 131235Z AUTO 22009KT 10SM CLR 04/M04 A2990 RMK AO2 T00411042
KCQB 131215Z AUTO 21010KT 10SM CLR 04/M04 A2991 RMK AO2 T00421041
KCQB 131155Z AUTO 21010KT 10SM CLR 04/M04 A2991 RMK AO2 T00401038 10043 20017
KCQB 131135Z AUTO 21008KT 10SM CLR 04/M04 A2991 RMK AO2 T00391037
KCQB 131115Z AUTO 22010KT 10SM CLR 04/M04 A2991 RMK AO2 T00401036
KCQB 131055Z AUTO 21009KT 10SM CLR 04/M03 A2992 RMK AO2 T00411034
KCQB 131035Z AUTO 21008KT 10SM CLR 04/M03 A2993 RMK AO2 T00401032
KCQB 131015Z AUTO 21009KT 10SM CLR 04/M03 A2993 RMK AO2 T00401031
KCQB 130955Z AUTO 20008KT 10SM CLR 04/M03 A2994 RMK AO2 T00351030
KCQB 130935Z AUTO 21008KT 10SM CLR 03/M03 A2995 RMK AO2 T00331029
KCQB 130915Z AUTO 20009KT 10SM CLR 03/M03 A2996 RMK AO2 T00291028
KCQB 130855Z AUTO 20008KT 10SM CLR 03/M03 A2997 RMK AO2 T00281029
KCQB 130835Z AUTO 20009KT 10SM CLR 03/M03 A2998 RMK AO2 T00291029
KCQB 130815Z AUTO 19009KT 10SM CLR 03/M03 A2998 RMK AO2 T00261030
KCQB 130755Z AUTO 19008KT 10SM CLR 02/M03 A2999 RMK AO2 T00241031
KCQB 130735Z AUTO 19008KT 10SM CLR 02/M03 A3000 RMK AO2 T00231031
KCQB 130715Z AUTO 19008KT 10SM CLR 02/M03 A3001 RMK AO2 T00231031
KCQB 130655Z AUTO 19008KT 10SM CLR 02/M03 A3002 RMK AO2
KCQB 130635Z AUTO 19007KT 10SM CLR 02/M03 A3003 RMK AO2 T00211030
KCQB 130615Z AUTO 19007KT 10SM CLR 02/M03 A3005 RMK AO2 T00191031
KCQB 130555Z AUTO 18007KT 10SM CLR 02/M03 A3006 RMK AO2 T00171031 10062 20017
KCQB 130535Z AUTO 18008KT 10SM CLR 02/M03 A3007 RMK AO2 T00201031
KCQB 130515Z AUTO 18007KT 10SM CLR 03/M03 A3009 RMK AO2 T00261030
KCQB 130455Z AUTO 18007KT 10SM CLR 02/M03 A3010 RMK AO2 T00241030
KCQB 130435Z AUTO 18007KT 10SM CLR 02/M03 A3010 RMK AO2 T00241029
KCQB 130415Z AUTO 18007KT 10SM CLR 02/M03 A3011 RMK AO2 T00221028
KCQB 130355Z AUTO 18006KT 10SM CLR 02/M03 A3012 RMK AO2 T00251029
KCQB 130335Z AUTO 19006KT 10SM CLR 02/M03 A3013 RMK AO2 T00231029
KCQB 130315Z AUTO 18006KT 10SM CLR 02/M03 A3014 RMK AO2 T00221029
KCQB 130255Z AUTO 19006KT 10SM CLR 02/M03 A3014 RMK AO2 T00181029
KCQB 130235Z AUTO 18005KT 10SM CLR 02/M03 A3016 RMK AO2 T00191029
KCQB 130215Z AUTO 19006KT 10SM CLR 02/M03 A3016 RMK AO2 T00241028
KCQB 130155Z AUTO 20005KT 10SM CLR 03/M03 A3017 RMK AO2 T00261030
KCQB 130135Z AUTO 20006KT 10SM CLR 03/M03 A3018 RMK AO2 T00291028
KCQB 130115Z AUTO 20006KT 10SM CLR 04/M03 A3019 RMK AO2 T00381028
KCQB 130055Z AUTO 20004KT 10SM CLR 05/M03 A3020 RMK AO2 T00491027
KCQB 130035Z AUTO 21003KT 10SM CLR 05/M03 A3020 RMK AO2 T00541027
KCQB 130015Z AUTO 21004KT 10SM CLR 05/M03 A3021 RMK AO2 T00501027
KCQB 122355Z AUTO 23004KT 10SM CLR 06/M03 A3022 RMK AO2 T00621026 10098 20061 401221009
KCQB 122335Z AUTO 22004KT 10SM CLR 06/M03 A3022 RMK AO2 T00631027
KCQB 122315Z AUTO 25004KT 10SM CLR 07/M03 A3023 RMK AO2 T00691027
KCQB 122255Z AUTO 25003KT 10SM CLR 08/M03 A3024 RMK AO2 T00761026
KCQB 122235Z AUTO 26004KT 10SM CLR 09/M03 A3025 RMK AO2 T00861026